Time;durP1;ratioP1;P1;durP2;ratioP2;P2;SDS_P1;SDS_P2;PMS_P1;PMS_P2;Temp;Humidity;BMP_temperature;BMP_pressure;BME280_temperature;BME280_humidity;BME280_pressure;Samples;Min_cycle;Max_cycle;Signal;HPM_P1;HPM_P2
2023/10/05 00:01:56;;;;;;;5.28;1.48;;;34.20;31.40;;;;;;5059334;28;20067;-66
2023/10/05 00:04:24;;;;;;;9.23;1.48;;;34.10;31.60;;;;;;5060307;28;20075;-66
2023/10/05 00:06:54;;;;;;;4.78;1.20;;;34.00;32.00;;;;;;5059982;28;20013;-65
2023/10/05 00:09:24;;;;;;;5.53;1.15;;;34.00;31.70;;;;;;5062209;28;20017;-65
2023/10/05 00:11:55;;;;;;;8.57;1.38;;;33.90;32.60;;;;;;5061292;28;20031;-64
2023/10/05 00:14:21;;;;;;;7.30;1.48;;;33.90;32.10;;;;;;5059619;28;20570;-68
2023/10/05 00:16:49;;;;;;;22.65;2.20;;;33.80;31.60;;;;;;5061477;28;20012;-68
2023/10/05 00:19:18;;;;;;;5.75;1.15;;;33.80;32.20;;;;;;5057683;28;20025;-68
2023/10/05 00:21:56;;;;;;;11.52;1.70;;;33.80;31.80;;;;;;5059361;28;20030;-67
2023/10/05 00:24:31;;;;;;;10.38;1.30;;;33.80;32.50;;;;;;5062496;28;20009;-68
2023/10/05 00:26:58;;;;;;;6.13;1.27;;;33.70;32.80;;;;;;5060994;28;20020;-68
2023/10/05 00:29:47;;;;;;;5.65;1.00;;;33.70;32.40;;;;;;5059072;28;20005;-67
2023/10/05 00:32:39;;;;;;;10.45;1.52;;;33.60;32.30;;;;;;5059112;28;20125;-66
2023/10/05 00:35:39;;;;;;;11.75;1.90;;;33.50;32.80;;;;;;5063026;28;20095;-66
2023/10/05 00:38:12;;;;;;;8.43;1.50;;;33.40;33.50;;;;;;5049362;28;20036;-66
2023/10/05 00:40:51;;;;;;;5.05;1.40;;;33.40;33.80;;;;;;5060930;28;20024;-70
2023/10/05 00:45:47;;;;;;;4.80;1.65;;;33.20;33.00;;;;;;5059630;28;20017;-69
2023/10/05 00:51:23;;;;;;;6.35;1.58;;;33.10;33.00;;;;;;5043681;28;20025;-68
2023/10/05 00:53:54;;;;;;;11.90;1.63;;;33.10;33.10;;;;;;5057632;28;21769;-67
2023/10/05 00:56:22;;;;;;;10.98;1.60;;;33.00;33.50;;;;;;5058759;28;20111;-67
2023/10/05 00:58:55;;;;;;;6.15;1.70;;;32.80;33.10;;;;;;5056518;28;20046;-68
2023/10/05 01:01:27;;;;;;;8.35;1.88;;;32.80;33.50;;;;;;5057864;28;20025;-70
2023/10/05 01:09:33;;;;;;;7.13;1.75;;;32.70;33.40;;;;;;5057637;28;20025;-68
2023/10/05 01:12:16;;;;;;;6.53;1.63;;;32.60;33.40;;;;;;5058650;28;20020;-69
2023/10/05 01:15:06;;;;;;;13.27;3.03;;;32.50;33.60;;;;;;5056627;28;20021;-68
2023/10/05 01:17:39;;;;;;;15.85;2.00;;;32.40;33.50;;;;;;5055938;28;20035;-68
2023/10/05 01:20:21;;;;;;;10.55;2.30;;;32.40;33.50;;;;;;5062989;28;20103;-70
2023/10/05 01:22:55;;;;;;;12.20;2.90;;;32.20;33.70;;;;;;5054961;28;20473;-68
2023/10/05 01:25:27;;;;;;;14.65;2.92;;;32.20;33.60;;;;;;5058085;28;20020;-71
2023/10/05 01:27:54;;;;;;;13.93;3.50;;;32.20;33.90;;;;;;5056926;28;20016;-67
2023/10/05 01:30:21;;;;;;;19.00;5.40;;;32.10;34.00;;;;;;5056000;28;20095;-66
2023/10/05 01:32:49;;;;;;;35.65;21.48;;;32.10;34.20;;;;;;5057374;28;20092;-70
2023/10/05 01:35:20;;;;;;;46.60;22.00;;;32.00;34.00;;;;;;5063310;28;20032;-69
2023/10/05 01:37:52;;;;;;;44.53;21.90;;;32.00;34.30;;;;;;5060422;28;20107;-68
2023/10/05 01:42:47;;;;;;;14.85;7.05;;;31.90;34.40;;;;;;5060444;28;20020;-69
2023/10/05 01:45:17;;;;;;;24.70;8.93;;;31.80;34.40;;;;;;5061471;28;20127;-71
2023/10/05 01:47:45;;;;;;;37.92;14.05;;;31.80;35.00;;;;;;5053362;28;20029;-70
2023/10/05 01:50:19;;;;;;;37.92;13.70;;;31.70;34.70;;;;;;5055648;28;20020;-69
2023/10/05 01:53:07;;;;;;;37.85;15.38;;;31.60;34.90;;;;;;5059272;28;20021;-68
2023/10/05 01:55:43;;;;;;;38.40;14.98;;;31.50;35.80;;;;;;5057412;28;20037;-72
2023/10/05 01:58:13;;;;;;;42.13;14.82;;;31.40;35.20;;;;;;5061858;28;20112;-70
2023/10/05 02:00:47;;;;;;;34.42;13.77;;;31.40;35.00;;;;;;5056787;28;20045;-68
2023/10/05 02:03:17;;;;;;;36.83;12.05;;;31.30;35.00;;;;;;5059593;28;20027;-70
2023/10/05 02:05:46;;;;;;;40.95;10.60;;;31.20;35.10;;;;;;5041468;28;20017;-71
2023/10/05 02:08:20;;;;;;;25.45;8.90;;;31.10;35.80;;;;;;5051635;28;20013;-70
2023/10/05 02:10:48;;;;;;;26.20;8.48;;;31.10;35.40;;;;;;5057342;28;20024;-71
2023/10/05 02:13:16;;;;;;;27.15;8.30;;;31.00;36.20;;;;;;5059240;28;20029;-70
2023/10/05 02:15:49;;;;;;;29.85;8.88;;;30.90;36.00;;;;;;5060160;28;20059;-70
2023/10/05 02:18:24;;;;;;;32.78;8.85;;;30.90;36.00;;;;;;5058542;28;20049;-69
2023/10/05 02:21:17;;;;;;;26.75;8.32;;;30.80;36.60;;;;;;5053306;28;20025;-72
2023/10/05 02:23:40;;;;;;;26.27;8.02;;;30.70;36.60;;;;;;5058787;28;20017;-70
2023/10/05 02:26:39;;;;;;;28.17;8.18;;;30.70;36.20;;;;;;5057751;28;20061;-70
2023/10/05 02:29:13;;;;;;;37.67;8.48;;;30.60;36.60;;;;;;5057734;28;20040;-69
2023/10/05 02:31:56;;;;;;;30.88;8.50;;;30.60;36.40;;;;;;5055122;28;20118;-66
2023/10/05 02:34:38;;;;;;;28.63;9.70;;;30.50;37.00;;;;;;5060792;28;20621;-69
2023/10/05 02:37:06;;;;;;;27.58;11.57;;;30.40;36.70;;;;;;5054820;28;20056;-68
2023/10/05 02:39:36;;;;;;;45.28;12.70;;;30.30;36.90;;;;;;5060988;28;20074;-68
2023/10/05 02:42:05;;;;;;;36.80;12.15;;;30.30;36.90;;;;;;5051956;28;20033;-67
2023/10/05 02:44:35;;;;;;;33.97;11.00;;;30.20;37.30;;;;;;5056480;28;20017;-67
2023/10/05 02:47:08;;;;;;;36.20;9.77;;;30.10;37.40;;;;;;5051246;28;20560;-68
2023/10/05 02:49:44;;;;;;;42.55;10.32;;;29.90;37.70;;;;;;5052913;28;20036;-68
2023/10/05 02:52:15;;;;;;;34.30;9.80;;;29.90;38.60;;;;;;5056945;28;20056;-68
2023/10/05 02:54:49;;;;;;;49.17;10.13;;;29.80;38.30;;;;;;5058454;28;20025;-68
2023/10/05 02:57:16;;;;;;;48.83;9.85;;;29.60;39.10;;;;;;5056663;28;20546;-68
2023/10/05 02:59:44;;;;;;;57.28;9.40;;;29.50;39.30;;;;;;5052392;28;20017;-69
2023/10/05 03:02:14;;;;;;;49.40;9.95;;;29.40;39.50;;;;;;5054000;28;20504;-68
2023/10/05 03:04:44;;;;;;;45.05;9.70;;;29.40;39.90;;;;;;5057329;28;20013;-69
2023/10/05 03:07:17;;;;;;;51.67;9.32;;;29.30;40.70;;;;;;5057134;28;20588;-69
2023/10/05 03:09:47;;;;;;;48.88;9.43;;;29.10;41.20;;;;;;5056698;28;20516;-69
2023/10/05 03:12:14;;;;;;;65.10;9.65;;;29.10;41.10;;;;;;5055949;28;20119;-68
2023/10/05 03:14:44;;;;;;;49.63;9.57;;;29.00;40.80;;;;;;5050751;28;20054;-67
2023/10/05 03:17:16;;;;;;;56.38;10.18;;;28.90;41.00;;;;;;5055685;28;20054;-67
2023/10/05 03:19:43;;;;;;;53.80;9.65;;;28.80;41.10;;;;;;5052623;28;20075;-68
2023/10/05 03:22:12;;;;;;;44.55;9.88;;;28.80;42.00;;;;;;5054032;28;20449;-67
2023/10/05 03:24:44;;;;;;;51.65;10.07;;;28.60;43.00;;;;;;5050683;28;20077;-68
2023/10/05 03:27:11;;;;;;;46.38;9.60;;;28.60;42.40;;;;;;5060680;28;20052;-69
2023/10/05 03:29:38;;;;;;;46.85;10.00;;;28.50;43.00;;;;;;5059884;28;20058;-68
2023/10/05 03:34:37;;;;;;;55.70;10.30;;;28.40;43.10;;;;;;5061567;28;20580;-68
2023/10/05 03:37:12;;;;;;;59.90;11.50;;;28.30;43.40;;;;;;5065472;28;20464;-69
2023/10/05 03:40:02;;;;;;;61.78;11.02;;;28.30;44.40;;;;;;5067302;28;20063;-69
2023/10/05 03:42:32;;;;;;;62.47;11.50;;;28.20;44.40;;;;;;5064364;28;20067;-72
2023/10/05 03:45:09;;;;;;;74.78;10.73;;;28.10;45.20;;;;;;5064250;28;20076;-69
2023/10/05 03:47:39;;;;;;;65.85;11.55;;;28.00;45.00;;;;;;5062045;28;20052;-70
2023/10/05 03:50:16;;;;;;;85.80;12.80;;;28.00;45.10;;;;;;5060855;28;20048;-71
2023/10/05 03:52:44;;;;;;;81.82;11.77;;;27.90;44.20;;;;;;5062900;28;20125;-70
2023/10/05 03:55:11;;;;;;;91.35;12.07;;;27.90;44.20;;;;;;5059048;28;20075;-70
2023/10/05 03:57:41;;;;;;;90.78;12.07;;;27.80;45.50;;;;;;5053163;28;20046;-70
2023/10/05 04:02:47;;;;;;;87.30;13.68;;;27.70;45.90;;;;;;5052636;28;20123;-69
2023/10/05 04:05:18;;;;;;;76.70;13.02;;;27.60;46.80;;;;;;5060820;28;20811;-69
2023/10/05 04:07:44;;;;;;;79.28;13.02;;;27.60;45.90;;;;;;5051370;28;20061;-70
2023/10/05 04:10:15;;;;;;;67.30;12.57;;;27.50;48.10;;;;;;5055139;28;20051;-70
2023/10/05 04:12:42;;;;;;;86.30;14.50;;;27.40;46.60;;;;;;5034639;28;20059;-69
2023/10/05 04:15:11;;;;;;;89.85;15.25;;;27.30;46.20;;;;;;5053245;28;20537;-71
2023/10/05 04:17:38;;;;;;;102.85;14.45;;;27.20;46.10;;;;;;5054451;28;20128;-71
2023/10/05 04:20:19;;;;;;;83.32;12.75;;;27.20;45.80;;;;;;5055635;28;20045;-71
2023/10/05 04:22:49;;;;;;;75.22;13.60;;;27.10;44.70;;;;;;5053849;28;20046;-68
2023/10/05 04:25:16;;;;;;;78.10;13.48;;;27.10;45.60;;;;;;5050501;28;20055;-71
2023/10/05 04:27:47;;;;;;;79.60;14.02;;;27.10;45.00;;;;;;5056603;28;20042;-69
2023/10/05 04:30:21;;;;;;;65.60;14.27;;;27.00;44.90;;;;;;5055949;28;20177;-71
2023/10/05 04:32:48;;;;;;;76.25;14.07;;;27.00;46.30;;;;;;5053065;28;20054;-70
2023/10/05 04:35:28;;;;;;;68.72;14.48;;;27.00;45.80;;;;;;5056103;28;20061;-71
2023/10/05 04:37:56;;;;;;;74.18;13.63;;;27.00;45.60;;;;;;5060531;28;20132;-70
2023/10/05 04:40:26;;;;;;;82.07;14.35;;;26.90;46.70;;;;;;5058087;28;20061;-68
2023/10/05 04:42:52;;;;;;;74.93;14.52;;;26.80;46.00;;;;;;5048737;28;20052;-69
2023/10/05 04:45:23;;;;;;;86.45;15.45;;;26.80;45.70;;;;;;5053511;28;20461;-68
2023/10/05 04:47:58;;;;;;;70.75;14.85;;;26.80;45.60;;;;;;5050662;28;21149;-71
2023/10/05 04:50:26;;;;;;;73.03;14.52;;;26.70;46.90;;;;;;5059746;28;20044;-70
2023/10/05 04:52:54;;;;;;;80.80;15.43;;;26.60;46.10;;;;;;5053001;28;20580;-71
2023/10/05 04:55:31;;;;;;;93.88;15.95;;;26.60;47.30;;;;;;5060449;28;20558;-70
2023/10/05 05:08:32;;;;;;;75.68;15.73;;;26.60;48.10;;;;;;5053735;28;20390;-65
2023/10/05 05:10:58;;;;;;;76.18;15.98;;;26.60;47.20;;;;;;5055458;28;20070;-66
2023/10/05 05:13:27;;;;;;;92.05;17.05;;;26.60;48.00;;;;;;5062109;28;20050;-64
2023/10/05 05:15:57;;;;;;;93.00;16.50;;;26.60;47.40;;;;;;5052711;28;20117;-61
2023/10/05 05:18:28;;;;;;;81.82;15.50;;;26.50;48.60;;;;;;5050735;28;20119;-68
2023/10/05 05:20:54;;;;;;;98.35;17.60;;;26.50;47.90;;;;;;5058990;28;20070;-66
2023/10/05 05:23:21;;;;;;;80.55;15.50;;;26.50;47.90;;;;;;5058849;28;20084;-66
2023/10/05 05:25:54;;;;;;;79.80;17.00;;;26.60;48.10;;;;;;5059156;28;20400;-66
2023/10/05 05:28:21;;;;;;;90.00;17.90;;;26.50;48.70;;;;;;5054635;28;20056;-64
2023/10/05 05:30:48;;;;;;;78.72;15.73;;;26.50;47.20;;;;;;5054739;28;20523;-65
2023/10/05 05:33:17;;;;;;;82.80;15.43;;;26.50;47.80;;;;;;5050836;28;20522;-66
2023/10/05 05:35:44;;;;;;;78.78;16.42;;;26.40;47.10;;;;;;5050887;28;20077;-63
2023/10/05 05:38:11;;;;;;;86.60;18.48;;;26.40;48.10;;;;;;5051204;28;20530;-63
2023/10/05 05:40:44;;;;;;;76.93;17.80;;;26.40;47.90;;;;;;5048679;28;20075;-63
2023/10/05 05:43:14;;;;;;;72.97;16.45;;;26.40;47.90;;;;;;5059709;28;21483;-63
2023/10/05 05:45:44;;;;;;;83.75;17.10;;;26.30;48.20;;;;;;5055582;28;20414;-63
2023/10/05 05:48:14;;;;;;;69.10;16.92;;;26.30;48.60;;;;;;5053862;28;20415;-66
2023/10/05 05:50:43;;;;;;;88.70;18.35;;;26.30;48.60;;;;;;5057985;28;20206;-64
2023/10/05 05:53:14;;;;;;;87.50;23.73;;;26.30;48.10;;;;;;5050931;28;20537;-65
2023/10/05 05:56:03;;;;;;;108.88;33.53;;;26.20;47.80;;;;;;5062688;28;20457;-64
2023/10/05 05:58:27;;;;;;;106.13;30.98;;;26.20;49.70;;;;;;5050717;28;20069;-64
2023/10/05 06:00:55;;;;;;;69.85;18.05;;;26.20;49.30;;;;;;5051625;28;20083;-64
2023/10/05 06:03:21;;;;;;;95.20;20.70;;;26.20;48.40;;;;;;5050317;28;20067;-62
2023/10/05 06:05:48;;;;;;;66.20;17.80;;;26.10;49.10;;;;;;5051607;28;20061;-63
2023/10/05 06:08:16;;;;;;;59.95;16.30;;;26.10;49.90;;;;;;5052533;28;20067;-63
2023/10/05 06:10:46;;;;;;;67.57;16.73;;;26.00;48.60;;;;;;5057273;28;20887;-63
2023/10/05 06:13:13;;;;;;;70.78;16.92;;;26.00;48.30;;;;;;5059154;28;20134;-66
2023/10/05 06:15:40;;;;;;;68.18;16.92;;;26.00;48.20;;;;;;5052745;28;20052;-65
2023/10/05 06:18:07;;;;;;;78.53;18.48;;;26.00;48.60;;;;;;5051079;28;20121;-64
2023/10/05 06:20:33;;;;;;;84.80;17.95;;;25.90;48.60;;;;;;5053553;28;20069;-66
2023/10/05 06:23:00;;;;;;;76.50;17.83;;;25.90;48.50;;;;;;5053715;28;20083;-63
2023/10/05 06:25:26;;;;;;;70.40;17.77;;;25.90;48.90;;;;;;5060525;28;20056;-64
2023/10/05 06:27:53;;;;;;;72.15;18.17;;;25.90;50.00;;;;;;5059672;28;20401;-62
2023/10/05 06:30:20;;;;;;;76.03;19.17;;;25.90;49.20;;;;;;5052862;28;20524;-61
2023/10/05 06:32:47;;;;;;;61.47;17.25;;;25.90;49.40;;;;;;5054623;28;20415;-64
2023/10/05 06:35:13;;;;;;;77.20;17.17;;;25.80;49.00;;;;;;5051332;28;20071;-61
2023/10/05 06:37:41;;;;;;;78.20;17.52;;;25.80;48.80;;;;;;5052149;28;20063;-61
2023/10/05 06:40:12;;;;;;;58.67;16.90;;;25.80;49.40;;;;;;5051492;28;20058;-68
2023/10/05 06:42:43;;;;;;;66.35;16.92;;;25.80;49.50;;;;;;5047495;28;20056;-67
2023/10/05 06:45:13;;;;;;;61.42;17.50;;;25.80;49.90;;;;;;5047405;28;20109;-65
2023/10/05 06:47:40;;;;;;;84.07;18.27;;;25.70;49.60;;;;;;5048410;28;20613;-67
2023/10/05 06:50:08;;;;;;;82.45;17.60;;;25.70;49.30;;;;;;5055520;28;20061;-66
2023/10/05 06:52:42;;;;;;;59.53;16.13;;;25.70;49.30;;;;;;5052022;28;20060;-66
2023/10/05 06:55:13;;;;;;;63.47;17.33;;;25.70;50.10;;;;;;5059388;28;20081;-68
2023/10/05 06:57:43;;;;;;;73.70;17.15;;;25.70;49.70;;;;;;5054002;28;20389;-67
2023/10/05 07:00:15;;;;;;;77.35;18.05;;;25.60;49.00;;;;;;5052106;28;20054;-66
2023/10/05 07:02:42;;;;;;;69.55;16.80;;;25.60;48.30;;;;;;5056272;28;20147;-67
2023/10/05 07:05:09;;;;;;;74.95;18.02;;;25.60;48.00;;;;;;5054774;28;20182;-68
2023/10/05 07:07:36;;;;;;;73.07;17.40;;;25.60;47.70;;;;;;5055646;28;20465;-67
2023/10/05 07:10:04;;;;;;;76.40;16.73;;;25.50;48.40;;;;;;5057852;28;20066;-66
2023/10/05 07:12:36;;;;;;;74.10;17.00;;;25.50;48.50;;;;;;5057995;28;20560;-66
2023/10/05 07:15:04;;;;;;;78.43;17.23;;;25.60;47.60;;;;;;5062485;28;20429;-66
2023/10/05 07:17:32;;;;;;;76.57;17.55;;;25.60;47.90;;;;;;5059633;28;20097;-69
2023/10/05 07:19:59;;;;;;;58.53;15.93;;;25.60;48.00;;;;;;5058410;28;20065;-67
2023/10/05 07:22:25;;;;;;;48.22;14.77;;;25.50;47.80;;;;;;5057050;28;20555;-67
2023/10/05 07:24:52;;;;;;;61.58;15.32;;;25.60;47.50;;;;;;5050909;28;20180;-65
2023/10/05 07:27:18;;;;;;;42.00;14.68;;;25.50;47.60;;;;;;5054913;28;20132;-67
2023/10/05 07:29:45;;;;;;;54.50;14.05;;;25.50;47.50;;;;;;5053762;28;21432;-66
2023/10/05 07:32:15;;;;;;;40.67;13.40;;;25.50;47.00;;;;;;5060015;28;20063;-66
2023/10/05 07:34:43;;;;;;;42.60;11.18;;;25.40;47.00;;;;;;5053482;28;20057;-66
2023/10/05 07:37:10;;;;;;;37.47;10.80;;;25.40;45.80;;;;;;5054415;28;20524;-65
2023/10/05 07:39:40;;;;;;;47.97;11.55;;;25.40;45.80;;;;;;5054501;28;20082;-66
2023/10/05 07:42:08;;;;;;;43.05;10.68;;;25.40;46.00;;;;;;5053249;28;20079;-68
2023/10/05 07:44:37;;;;;;;35.20;10.50;;;25.40;46.40;;;;;;5054401;28;20062;-69
2023/10/05 07:47:06;;;;;;;51.38;25.50;;;25.40;46.70;;;;;;5054756;28;20057;-66
2023/10/05 07:49:36;;;;;;;52.65;23.88;;;25.30;46.80;;;;;;5055369;28;20121;-69
2023/10/05 07:52:05;;;;;;;44.22;22.90;;;25.10;46.50;;;;;;5056620;28;20073;-68
2023/10/05 07:54:34;;;;;;;47.60;21.52;;;25.10;47.00;;;;;;5052595;28;20594;-69
2023/10/05 07:57:02;;;;;;;40.78;20.92;;;25.10;47.50;;;;;;5053161;28;20078;-67
2023/10/05 07:59:31;;;;;;;35.88;19.20;;;25.10;48.00;;;;;;5051903;28;20414;-68
2023/10/05 08:01:58;;;;;;;32.38;20.17;;;25.00;47.50;;;;;;5057134;28;20217;-67
2023/10/05 08:04:24;;;;;;;32.40;20.13;;;25.00;47.30;;;;;;5056627;28;20537;-67
2023/10/05 08:06:52;;;;;;;10.63;2.25;;;25.00;46.70;;;;;;5055874;28;20194;-65
2023/10/05 08:09:20;;;;;;;9.75;2.03;;;25.00;46.30;;;;;;5057167;28;20064;-67
2023/10/05 08:11:53;;;;;;;5.45;1.65;;;24.90;45.90;;;;;;5055094;28;20534;-68
2023/10/05 08:14:20;;;;;;;10.30;2.00;;;24.90;45.40;;;;;;5054218;28;20160;-67
2023/10/05 08:16:50;;;;;;;10.90;1.80;;;24.90;45.60;;;;;;5055664;28;20064;-66
2023/10/05 08:19:19;;;;;;;4.57;1.60;;;24.80;46.00;;;;;;5054177;28;20070;-66
2023/10/05 08:21:46;;;;;;;9.95;1.90;;;24.90;45.70;;;;;;5060754;28;20078;-66
2023/10/05 08:24:17;;;;;;;7.15;1.55;;;24.90;45.80;;;;;;5055404;28;20113;-67
2023/10/05 08:26:44;;;;;;;11.75;1.85;;;24.90;45.70;;;;;;5061321;28;20071;-66
2023/10/05 08:29:10;;;;;;;12.85;2.20;;;24.80;45.80;;;;;;5050515;28;20074;-65
2023/10/05 08:31:37;;;;;;;6.22;2.00;;;24.80;45.50;;;;;;5055140;28;20065;-66
2023/10/05 08:34:06;;;;;;;8.15;1.77;;;24.80;45.80;;;;;;5061424;28;20065;-66
2023/10/05 08:36:33;;;;;;;8.75;2.35;;;24.80;46.60;;;;;;5052770;28;20061;-67
2023/10/05 08:39:00;;;;;;;10.10;2.00;;;24.70;45.70;;;;;;5053254;28;20063;-68
2023/10/05 08:41:41;;;;;;;12.07;1.90;;;24.70;45.90;;;;;;5050918;28;20080;-67
2023/10/05 08:44:30;;;;;;;8.93;2.00;;;24.60;46.00;;;;;;5056150;28;20117;-66
2023/10/05 08:46:56;;;;;;;6.75;2.05;;;24.50;45.90;;;;;;5050698;28;20067;-67
2023/10/05 08:49:27;;;;;;;6.65;1.77;;;24.50;45.60;;;;;;5052057;28;20059;-67
2023/10/05 08:51:54;;;;;;;13.00;1.55;;;24.60;45.90;;;;;;5050456;28;20435;-67
2023/10/05 08:54:27;;;;;;;12.65;1.88;;;24.50;45.40;;;;;;5048247;28;20068;-65
2023/10/05 08:56:58;;;;;;;8.02;1.65;;;24.60;45.60;;;;;;5052411;28;20091;-66
2023/10/05 08:59:26;;;;;;;12.70;2.33;;;24.60;46.00;;;;;;5053877;28;20177;-65
2023/10/05 09:01:59;;;;;;;11.73;2.10;;;24.60;45.90;;;;;;5054497;28;20155;-62
2023/10/05 09:04:44;;;;;;;10.07;2.20;;;24.60;45.80;;;;;;5058582;28;20060;-65
2023/10/05 09:07:43;;;;;;;8.05;1.70;;;24.50;45.40;;;;;;5053895;28;20485;-67
2023/10/05 09:10:25;;;;;;;7.47;2.03;;;24.50;45.20;;;;;;5024206;28;20157;-65
2023/10/05 09:13:07;;;;;;;13.35;2.28;;;24.50;45.30;;;;;;5024867;28;20070;-65
2023/10/05 09:15:49;;;;;;;8.65;2.20;;;24.50;45.00;;;;;;5023259;28;20058;-66
2023/10/05 09:20:46;;;;;;;11.68;2.38;;;24.50;45.20;;;;;;5023163;28;20601;-66
2023/10/05 09:23:20;;;;;;;9.60;1.90;;;24.50;45.20;;;;;;5022707;28;20117;-66
2023/10/05 09:25:47;;;;;;;4.90;1.73;;;24.40;45.30;;;;;;5023028;28;20145;-65
2023/10/05 09:28:34;;;;;;;9.18;2.03;;;24.40;44.20;;;;;;5024016;28;20057;-66
2023/10/05 09:31:00;;;;;;;8.52;2.15;;;24.50;44.20;;;;;;5023537;28;20627;-66
2023/10/05 09:33:33;;;;;;;9.18;2.10;;;24.40;44.50;;;;;;5023002;28;20073;-66
2023/10/05 09:36:19;;;;;;;14.15;2.13;;;24.40;44.70;;;;;;5023484;28;20118;-66
2023/10/05 09:38:46;;;;;;;13.30;2.40;;;24.40;45.90;;;;;;5022792;28;20521;-67
2023/10/05 09:41:20;;;;;;;7.40;2.30;;;24.30;45.40;;;;;;5023644;28;20072;-67
2023/10/05 09:43:58;;;;;;;7.22;2.40;;;24.30;45.40;;;;;;5024236;28;20527;-66
2023/10/05 09:46:27;;;;;;;5.60;1.80;;;24.30;45.50;;;;;;5051561;28;20093;-66
2023/10/05 09:48:55;;;;;;;13.00;2.25;;;24.20;46.70;;;;;;5054400;28;20055;-66
2023/10/05 09:51:22;;;;;;;8.02;1.90;;;24.10;46.20;;;;;;5055928;28;20050;-66
2023/10/05 09:53:52;;;;;;;8.63;1.90;;;24.00;46.10;;;;;;5056603;28;20587;-65
2023/10/05 09:56:20;;;;;;;7.88;2.38;;;24.00;46.00;;;;;;5053465;28;20197;-67
2023/10/05 09:58:47;;;;;;;6.95;1.92;;;23.90;47.10;;;;;;5056062;28;20066;-66
2023/10/05 10:01:13;;;;;;;9.82;2.13;;;23.90;46.80;;;;;;5055889;28;20161;-68
2023/10/05 10:03:45;;;;;;;9.13;1.90;;;23.90;47.60;;;;;;5058995;28;20054;-66
2023/10/05 10:06:24;;;;;;;9.35;2.22;;;23.80;47.10;;;;;;5053600;28;20059;-67
2023/10/05 10:08:57;;;;;;;6.47;2.10;;;23.80;47.50;;;;;;5052100;28;20052;-68
2023/10/05 10:11:31;;;;;;;4.32;1.65;;;23.70;47.90;;;;;;5062790;28;20523;-67
2023/10/05 10:14:03;;;;;;;7.97;2.22;;;23.80;47.70;;;;;;5055453;28;20434;-68
2023/10/05 10:16:34;;;;;;;7.05;2.13;;;23.70;46.90;;;;;;5052206;28;20058;-68
2023/10/05 10:19:20;;;;;;;7.45;2.63;;;23.80;46.50;;;;;;5054020;28;20668;-66
2023/10/05 10:21:53;;;;;;;7.18;3.03;;;23.80;46.10;;;;;;5054576;28;20029;-66
2023/10/05 10:24:19;;;;;;;9.07;3.03;;;23.80;45.50;;;;;;5052849;28;20047;-68
2023/10/05 10:27:07;;;;;;;8.77;3.42;;;23.80;45.90;;;;;;5049250;28;20017;-67
2023/10/05 10:29:56;;;;;;;13.07;4.03;;;23.90;46.20;;;;;;5055166;28;20044;-67
2023/10/05 10:32:31;;;;;;;7.72;3.80;;;23.80;45.80;;;;;;5058939;28;20021;-66
2023/10/05 10:35:12;;;;;;;11.63;4.38;;;23.80;45.60;;;;;;5049677;28;20047;-69
2023/10/05 10:37:44;;;;;;;12.60;4.35;;;23.90;45.50;;;;;;5059247;28;20071;-66
2023/10/05 10:45:41;;;;;;;7.18;3.97;;;23.80;46.10;;;;;;5053937;28;20189;-65
2023/10/05 10:48:40;;;;;;;;;;;23.80;47.00;;;;;;5061209;28;20102;-67
2023/10/05 10:51:00;;;;;;;8.55;4.20;;;23.80;47.10;;;;;;5054327;28;19962;-68
2023/10/05 10:53:31;;;;;;;11.57;4.22;;;23.70;47.80;;;;;;5054738;28;20025;-67
2023/10/05 10:56:27;;;;;;;9.85;3.88;;;23.70;49.30;;;;;;5050149;28;20152;-69
2023/10/05 10:59:08;;;;;;;8.93;3.45;;;23.70;48.00;;;;;;5050402;28;20043;-69
2023/10/05 11:01:43;;;;;;;12.98;3.60;;;23.60;48.30;;;;;;5059133;28;20072;-69
2023/10/05 11:04:26;;;;;;;14.30;3.10;;;23.50;49.70;;;;;;5058389;28;20052;-66
2023/10/05 11:07:05;;;;;;;12.75;2.83;;;23.40;49.10;;;;;;5052686;28;20636;-68
2023/10/05 11:09:54;;;;;;;8.05;2.58;;;23.40;49.00;;;;;;5053976;28;20043;-66
2023/10/05 11:12:23;;;;;;;9.90;2.63;;;23.30;49.90;;;;;;5058447;28;20108;-68
2023/10/05 11:15:17;;;;;;;7.65;2.53;;;23.30;50.10;;;;;;5052599;28;20150;-66
2023/10/05 11:17:45;;;;;;;4.25;2.60;;;23.30;51.20;;;;;;5054913;28;20077;-67
2023/10/05 11:20:26;;;;;;;10.02;2.78;;;23.10;50.80;;;;;;5055890;28;20061;-68
2023/10/05 11:23:01;;;;;;;4.72;2.20;;;23.00;50.30;;;;;;5051212;28;20120;-67
2023/10/05 11:25:35;;;;;;;10.18;2.38;;;23.00;49.90;;;;;;5058167;28;20052;-66
2023/10/05 11:28:08;;;;;;;10.00;2.53;;;23.00;50.00;;;;;;5051516;28;20041;-69
2023/10/05 11:30:47;;;;;;;8.45;2.38;;;23.00;50.00;;;;;;5053519;28;20056;-67
2023/10/05 11:33:16;;;;;;;15.88;2.78;;;22.90;50.60;;;;;;5051318;28;20079;-69
2023/10/05 11:35:51;;;;;;;9.63;2.30;;;22.90;52.20;;;;;;5052474;28;20532;-67
2023/10/05 11:38:19;;;;;;;8.50;2.33;;;22.80;52.10;;;;;;5059317;28;20679;-68
2023/10/05 11:40:50;;;;;;;6.45;2.70;;;22.80;52.00;;;;;;5061008;28;20041;-67
2023/10/05 11:43:24;;;;;;;7.93;2.50;;;22.70;52.00;;;;;;5056744;28;20013;-65
2023/10/05 11:46:24;;;;;;;17.00;3.10;;;22.70;51.20;;;;;;5051723;28;20046;-66
2023/10/05 11:48:56;;;;;;;22.80;4.75;;;22.70;50.60;;;;;;5055114;28;20074;-67
2023/10/05 11:51:27;;;;;;;13.38;4.00;;;22.60;50.80;;;;;;5054583;28;20048;-66
2023/10/05 11:53:57;;;;;;;13.68;4.10;;;22.80;51.00;;;;;;5050537;28;20515;-66
2023/10/05 11:56:30;;;;;;;11.60;3.47;;;22.80;50.90;;;;;;5057980;28;20083;-69
2023/10/05 11:59:00;;;;;;;20.92;4.18;;;22.80;51.60;;;;;;5053320;28;20088;-66
2023/10/05 12:01:27;;;;;;;14.68;3.95;;;22.80;51.40;;;;;;5058237;28;20063;-66
2023/10/05 12:03:55;;;;;;;15.07;4.60;;;22.70;51.80;;;;;;5050483;28;20124;-67
2023/10/05 12:06:25;;;;;;;11.65;3.97;;;22.70;51.80;;;;;;5055134;28;20478;-67
2023/10/05 12:11:59;;;;;;;18.30;4.20;;;22.70;51.60;;;;;;5019914;28;20093;-67
2023/10/05 12:14:26;;;;;;;19.63;4.72;;;22.60;53.20;;;;;;5017295;28;20050;-65
2023/10/05 12:16:56;;;;;;;13.82;4.10;;;22.50;53.00;;;;;;5011829;28;20063;-68
2023/10/05 12:19:29;;;;;;;15.07;3.75;;;22.60;52.40;;;;;;5009756;28;20191;-66
2023/10/05 12:21:59;;;;;;;11.63;3.95;;;22.60;51.80;;;;;;5009594;28;20064;-66
2023/10/05 12:24:30;;;;;;;17.42;4.38;;;22.60;52.60;;;;;;5016312;28;20010;-67
2023/10/05 12:27:04;;;;;;;26.67;4.10;;;22.50;52.10;;;;;;5008142;28;20139;-67
2023/10/05 12:29:30;;;;;;;15.55;5.28;;;22.50;52.20;;;;;;5009467;28;20054;-64
2023/10/05 12:32:06;;;;;;;26.33;5.85;;;22.50;52.10;;;;;;5009360;28;20223;-66
2023/10/05 12:34:35;;;;;;;18.92;5.53;;;22.50;51.90;;;;;;5012270;28;20018;-69
2023/10/05 12:37:07;;;;;;;21.27;5.88;;;22.40;54.00;;;;;;5009224;28;20143;-65
2023/10/05 12:39:34;;;;;;;16.70;5.03;;;22.30;53.50;;;;;;5016094;28;20030;-66
2023/10/05 12:42:01;;;;;;;21.42;5.38;;;22.10;54.10;;;;;;5008439;28;20041;-67
2023/10/05 12:44:28;;;;;;;30.88;5.70;;;22.20;54.30;;;;;;5014739;28;20029;-67
2023/10/05 12:46:54;;;;;;;18.00;5.20;;;22.20;53.60;;;;;;5057650;28;20386;-67
2023/10/05 12:49:21;;;;;;;17.80;4.63;;;22.20;53.70;;;;;;5050185;28;20036;-66
2023/10/05 12:51:48;;;;;;;19.50;5.10;;;22.20;53.90;;;;;;5059085;28;20021;-67
2023/10/05 12:54:30;;;;;;;34.42;5.85;;;22.20;54.80;;;;;;5054677;28;20025;-66
2023/10/05 12:56:59;;;;;;;18.38;5.47;;;22.20;55.70;;;;;;5056166;28;20029;-66
2023/10/05 12:59:25;;;;;;;20.33;5.10;;;22.10;55.20;;;;;;5053941;28;20064;-67
2023/10/05 13:01:57;;;;;;;19.48;5.88;;;22.10;54.50;;;;;;5050929;28;20101;-67
2023/10/05 13:04:24;;;;;;;21.17;5.47;;;22.10;54.30;;;;;;5053738;28;20044;-67
2023/10/05 13:06:50;;;;;;;18.52;4.75;;;22.00;54.00;;;;;;5051348;28;20504;-65
2023/10/05 13:09:19;;;;;;;28.35;5.75;;;22.00;56.10;;;;;;5054090;28;20102;-67
2023/10/05 13:11:47;;;;;;;32.58;6.20;;;21.90;54.80;;;;;;5056731;28;20383;-67
2023/10/05 13:14:14;;;;;;;27.05;5.18;;;21.90;55.00;;;;;;5056239;28;20052;-68
2023/10/05 13:16:44;;;;;;;24.60;5.22;;;21.90;55.40;;;;;;5049413;28;20160;-66
2023/10/05 13:19:12;;;;;;;30.40;6.43;;;21.90;55.70;;;;;;5049518;28;20392;-66
2023/10/05 13:21:45;;;;;;;20.52;5.53;;;22.00;55.90;;;;;;5053574;28;20084;-66
2023/10/05 13:24:12;;;;;;;29.40;6.63;;;22.00;55.30;;;;;;5054357;28;20101;-68
2023/10/05 13:26:44;;;;;;;22.05;6.07;;;22.00;55.10;;;;;;5056377;28;20123;-68
2023/10/05 13:29:17;;;;;;;27.67;6.20;;;21.90;55.50;;;;;;5052178;28;20113;-66
2023/10/05 13:31:47;;;;;;;29.60;6.15;;;21.90;55.90;;;;;;5057530;28;20087;-67
2023/10/05 13:34:16;;;;;;;22.17;5.78;;;21.90;55.90;;;;;;5051140;28;20583;-69
2023/10/05 13:36:52;;;;;;;25.92;6.18;;;21.80;55.50;;;;;;5055305;28;20116;-68
2023/10/05 13:39:21;;;;;;;18.13;5.65;;;21.80;55.70;;;;;;5052877;28;20172;-65